sensor_id;sensor_type;location;lat;lon;timestamp;P1;durP1;ratioP1;P2;durP2;ratioP2
45618;SDS011;31343;47.520;19.144;2023-02-01T00:01:26;2.97;;;1.77;;
45618;SDS011;31343;47.520;19.144;2023-02-01T00:03:53;2.92;;;2.10;;
45618;SDS011;31343;47.520;19.144;2023-02-01T00:06:19;7.25;;;2.40;;
45618;SDS011;31343;47.520;19.144;2023-02-01T00:08:44;3.30;;;1.98;;
45618;SDS011;31343;47.520;19.144;2023-02-01T00:11:11;10.80;;;2.05;;
45618;SDS011;31343;47.520;19.144;2023-02-01T00:13:38;4.75;;;1.98;;
45618;SDS011;31343;47.520;19.144;2023-02-01T00:16:10;3.38;;;1.88;;
45618;SDS011;31343;47.520;19.144;2023-02-01T00:18:40;4.63;;;1.80;;
45618;SDS011;31343;47.520;19.144;2023-02-01T00:21:06;5.82;;;2.22;;
45618;SDS011;31343;47.520;19.144;2023-02-01T00:23:32;4.32;;;1.90;;
45618;SDS011;31343;47.520;19.144;2023-02-01T00:26:00;3.72;;;1.85;;
45618;SDS011;31343;47.520;19.144;2023-02-01T00:28:27;3.88;;;1.92;;
45618;SDS011;31343;47.520;19.144;2023-02-01T00:30:57;3.97;;;1.88;;
45618;SDS011;31343;47.520;19.144;2023-02-01T00:33:24;3.63;;;2.08;;
45618;SDS011;31343;47.520;19.144;2023-02-01T00:35:49;5.20;;;2.03;;
45618;SDS011;31343;47.520;19.144;2023-02-01T00:38:16;6.20;;;2.83;;
45618;SDS011;31343;47.520;19.144;2023-02-01T00:40:42;3.80;;;1.70;;
45618;SDS011;31343;47.520;19.144;2023-02-01T00:43:08;5.38;;;2.17;;
45618;SDS011;31343;47.520;19.144;2023-02-01T00:45:35;5.13;;;2.53;;
45618;SDS011;31343;47.520;19.144;2023-02-01T00:48:00;6.25;;;2.03;;
45618;SDS011;31343;47.520;19.144;2023-02-01T00:50:26;3.67;;;1.67;;
45618;SDS011;31343;47.520;19.144;2023-02-01T00:52:52;8.43;;;2.20;;
45618;SDS011;31343;47.520;19.144;2023-02-01T00:55:17;4.97;;;1.95;;
45618;SDS011;31343;47.520;19.144;2023-02-01T00:57:43;6.15;;;2.38;;
45618;SDS011;31343;47.520;19.144;2023-02-01T01:00:09;5.35;;;2.03;;
45618;SDS011;31343;47.520;19.144;2023-02-01T01:02:35;5.82;;;2.42;;
45618;SDS011;31343;47.520;19.144;2023-02-01T01:05:01;6.45;;;2.38;;
45618;SDS011;31343;47.520;19.144;2023-02-01T01:07:27;4.05;;;2.28;;
45618;SDS011;31343;47.520;19.144;2023-02-01T01:09:53;7.28;;;2.50;;
45618;SDS011;31343;47.520;19.144;2023-02-01T01:12:19;6.63;;;2.47;;
45618;SDS011;31343;47.520;19.144;2023-02-01T01:14:46;7.88;;;2.20;;
45618;SDS011;31343;47.520;19.144;2023-02-01T01:17:12;5.28;;;2.00;;
45618;SDS011;31343;47.520;19.144;2023-02-01T01:19:37;8.23;;;2.22;;
45618;SDS011;31343;47.520;19.144;2023-02-01T01:22:03;4.05;;;2.20;;
45618;SDS011;31343;47.520;19.144;2023-02-01T01:24:29;4.03;;;2.08;;
45618;SDS011;31343;47.520;19.144;2023-02-01T01:26:55;3.67;;;2.25;;
45618;SDS011;31343;47.520;19.144;2023-02-01T01:29:20;4.30;;;1.80;;
45618;SDS011;31343;47.520;19.144;2023-02-01T01:31:46;5.88;;;1.95;;
45618;SDS011;31343;47.520;19.144;2023-02-01T01:34:12;5.15;;;2.38;;
45618;SDS011;31343;47.520;19.144;2023-02-01T01:36:37;4.10;;;2.00;;
45618;SDS011;31343;47.520;19.144;2023-02-01T01:39:03;5.00;;;1.88;;
45618;SDS011;31343;47.520;19.144;2023-02-01T01:41:30;5.32;;;2.60;;
45618;SDS011;31343;47.520;19.144;2023-02-01T01:51:28;3.90;;;1.83;;
45618;SDS011;31343;47.520;19.144;2023-02-01T01:53:59;4.88;;;2.10;;
45618;SDS011;31343;47.520;19.144;2023-02-01T01:56:39;5.80;;;2.60;;
45618;SDS011;31343;47.520;19.144;2023-02-01T01:59:06;3.88;;;1.80;;
45618;SDS011;31343;47.520;19.144;2023-02-01T02:01:33;3.95;;;2.20;;
45618;SDS011;31343;47.520;19.144;2023-02-01T02:03:58;3.65;;;2.20;;
45618;SDS011;31343;47.520;19.144;2023-02-01T02:09:03;4.25;;;2.05;;
45618;SDS011;31343;47.520;19.144;2023-02-01T02:11:29;3.50;;;2.08;;
45618;SDS011;31343;47.520;19.144;2023-02-01T02:13:54;4.57;;;2.15;;
45618;SDS011;31343;47.520;19.144;2023-02-01T02:16:39;3.72;;;2.10;;
45618;SDS011;31343;47.520;19.144;2023-02-01T02:36:04;3.00;;;1.80;;
45618;SDS011;31343;47.520;19.144;2023-02-01T02:45:00;4.75;;;1.83;;
45618;SDS011;31343;47.520;19.144;2023-02-01T02:47:23;2.83;;;1.83;;
45618;SDS011;31343;47.520;19.144;2023-02-01T02:50:24;3.33;;;2.20;;
45618;SDS011;31343;47.520;19.144;2023-02-01T02:53:19;3.10;;;2.15;;
45618;SDS011;31343;47.520;19.144;2023-02-01T02:56:09;4.25;;;2.05;;
45618;SDS011;31343;47.520;19.144;2023-02-01T02:58:54;2.55;;;1.50;;
45618;SDS011;31343;47.520;19.144;2023-02-01T03:01:40;5.53;;;2.28;;
45618;SDS011;31343;47.520;19.144;2023-02-01T03:04:25;2.55;;;1.63;;
45618;SDS011;31343;47.520;19.144;2023-02-01T03:06:52;2.95;;;1.80;;
45618;SDS011;31343;47.520;19.144;2023-02-01T03:09:21;4.50;;;2.20;;
45618;SDS011;31343;47.520;19.144;2023-02-01T03:12:01;3.95;;;2.55;;
45618;SDS011;31343;47.520;19.144;2023-02-01T03:14:52;4.07;;;1.95;;
45618;SDS011;31343;47.520;19.144;2023-02-01T03:17:26;3.97;;;1.60;;
45618;SDS011;31343;47.520;19.144;2023-02-01T03:19:57;2.90;;;2.28;;
45618;SDS011;31343;47.520;19.144;2023-02-01T03:22:27;5.65;;;2.40;;
45618;SDS011;31343;47.520;19.144;2023-02-01T03:24:59;3.45;;;1.67;;
45618;SDS011;31343;47.520;19.144;2023-02-01T03:27:33;3.60;;;2.05;;
45618;SDS011;31343;47.520;19.144;2023-02-01T03:32:48;3.65;;;2.15;;
45618;SDS011;31343;47.520;19.144;2023-02-01T03:35:25;4.82;;;1.90;;
45618;SDS011;31343;47.520;19.144;2023-02-01T03:38:18;3.20;;;1.90;;
45618;SDS011;31343;47.520;19.144;2023-02-01T03:40:45;2.83;;;1.90;;
45618;SDS011;31343;47.520;19.144;2023-02-01T03:43:38;3.30;;;1.80;;
45618;SDS011;31343;47.520;19.144;2023-02-01T03:46:30;3.72;;;2.03;;
45618;SDS011;31343;47.520;19.144;2023-02-01T03:49:01;5.07;;;1.50;;
45618;SDS011;31343;47.520;19.144;2023-02-01T03:51:30;4.05;;;1.85;;
45618;SDS011;31343;47.520;19.144;2023-02-01T03:53:58;3.10;;;1.85;;
45618;SDS011;31343;47.520;19.144;2023-02-01T03:56:26;3.22;;;2.10;;
45618;SDS011;31343;47.520;19.144;2023-02-01T03:58:53;3.53;;;1.80;;
45618;SDS011;31343;47.520;19.144;2023-02-01T04:01:25;3.42;;;1.50;;
45618;SDS011;31343;47.520;19.144;2023-02-01T04:03:53;3.85;;;2.25;;
45618;SDS011;31343;47.520;19.144;2023-02-01T04:06:19;3.17;;;2.05;;
45618;SDS011;31343;47.520;19.144;2023-02-01T04:08:45;2.50;;;1.67;;
45618;SDS011;31343;47.520;19.144;2023-02-01T04:11:11;4.32;;;1.98;;
45618;SDS011;31343;47.520;19.144;2023-02-01T04:13:38;3.78;;;1.90;;
45618;SDS011;31343;47.520;19.144;2023-02-01T04:16:04;2.78;;;1.70;;
45618;SDS011;31343;47.520;19.144;2023-02-01T04:18:30;2.95;;;1.70;;
45618;SDS011;31343;47.520;19.144;2023-02-01T04:20:57;3.05;;;1.50;;
45618;SDS011;31343;47.520;19.144;2023-02-01T04:23:24;3.97;;;1.85;;
45618;SDS011;31343;47.520;19.144;2023-02-01T04:25:49;3.40;;;1.80;;
45618;SDS011;31343;47.520;19.144;2023-02-01T04:28:15;4.43;;;2.15;;
45618;SDS011;31343;47.520;19.144;2023-02-01T04:30:41;3.83;;;2.00;;
45618;SDS011;31343;47.520;19.144;2023-02-01T04:33:06;3.47;;;1.75;;
45618;SDS011;31343;47.520;19.144;2023-02-01T04:35:33;4.00;;;1.83;;
45618;SDS011;31343;47.520;19.144;2023-02-01T04:38:00;2.50;;;1.67;;
45618;SDS011;31343;47.520;19.144;2023-02-01T04:40:26;3.42;;;1.90;;
45618;SDS011;31343;47.520;19.144;2023-02-01T04:42:51;4.05;;;2.10;;
45618;SDS011;31343;47.520;19.144;2023-02-01T04:45:17;4.43;;;1.80;;
45618;SDS011;31343;47.520;19.144;2023-02-01T04:47:43;3.22;;;1.75;;
45618;SDS011;31343;47.520;19.144;2023-02-01T04:50:09;3.10;;;1.50;;
45618;SDS011;31343;47.520;19.144;2023-02-01T04:52:35;4.32;;;1.83;;
45618;SDS011;31343;47.520;19.144;2023-02-01T04:55:02;3.88;;;2.03;;
45618;SDS011;31343;47.520;19.144;2023-02-01T04:57:28;3.30;;;1.55;;
45618;SDS011;31343;47.520;19.144;2023-02-01T04:59:54;3.00;;;2.00;;
45618;SDS011;31343;47.520;19.144;2023-02-01T05:02:20;3.53;;;2.05;;
45618;SDS011;31343;47.520;19.144;2023-02-01T05:04:45;4.22;;;1.83;;
45618;SDS011;31343;47.520;19.144;2023-02-01T05:07:11;3.53;;;2.20;;
45618;SDS011;31343;47.520;19.144;2023-02-01T05:09:37;3.25;;;1.98;;
45618;SDS011;31343;47.520;19.144;2023-02-01T05:12:03;3.30;;;2.00;;
45618;SDS011;31343;47.520;19.144;2023-02-01T05:14:47;3.13;;;1.90;;
45618;SDS011;31343;47.520;19.144;2023-02-01T05:17:14;3.17;;;2.00;;
45618;SDS011;31343;47.520;19.144;2023-02-01T05:19:39;3.72;;;1.92;;
45618;SDS011;31343;47.520;19.144;2023-02-01T05:22:05;3.30;;;1.70;;
45618;SDS011;31343;47.520;19.144;2023-02-01T05:24:31;4.10;;;1.85;;
45618;SDS011;31343;47.520;19.144;2023-02-01T05:26:57;2.97;;;2.00;;
45618;SDS011;31343;47.520;19.144;2023-02-01T05:29:22;3.20;;;1.90;;
45618;SDS011;31343;47.520;19.144;2023-02-01T05:31:48;4.35;;;2.40;;
45618;SDS011;31343;47.520;19.144;2023-02-01T05:34:14;3.63;;;1.90;;
45618;SDS011;31343;47.520;19.144;2023-02-01T05:36:41;4.75;;;2.00;;
45618;SDS011;31343;47.520;19.144;2023-02-01T05:39:07;3.67;;;1.80;;
45618;SDS011;31343;47.520;19.144;2023-02-01T05:41:32;2.78;;;1.52;;
45618;SDS011;31343;47.520;19.144;2023-02-01T05:43:59;2.72;;;1.50;;
45618;SDS011;31343;47.520;19.144;2023-02-01T05:46:25;2.50;;;1.45;;
45618;SDS011;31343;47.520;19.144;2023-02-01T05:48:51;2.35;;;1.23;;
45618;SDS011;31343;47.520;19.144;2023-02-01T05:51:16;3.53;;;1.65;;
45618;SDS011;31343;47.520;19.144;2023-02-01T05:53:42;4.32;;;2.40;;
45618;SDS011;31343;47.520;19.144;2023-02-01T05:56:08;2.80;;;1.60;;
45618;SDS011;31343;47.520;19.144;2023-02-01T05:58:33;3.35;;;1.73;;
45618;SDS011;31343;47.520;19.144;2023-02-01T06:00:59;3.70;;;1.95;;
45618;SDS011;31343;47.520;19.144;2023-02-01T06:03:26;3.10;;;1.90;;
45618;SDS011;31343;47.520;19.144;2023-02-01T06:05:52;2.95;;;1.67;;
45618;SDS011;31343;47.520;19.144;2023-02-01T06:08:18;3.55;;;2.05;;
45618;SDS011;31343;47.520;19.144;2023-02-01T06:10:45;3.65;;;1.83;;
45618;SDS011;31343;47.520;19.144;2023-02-01T06:13:11;3.90;;;1.80;;
45618;SDS011;31343;47.520;19.144;2023-02-01T06:15:36;3.85;;;2.00;;
45618;SDS011;31343;47.520;19.144;2023-02-01T06:18:02;5.10;;;1.95;;
45618;SDS011;31343;47.520;19.144;2023-02-01T06:20:28;3.60;;;1.85;;
45618;SDS011;31343;47.520;19.144;2023-02-01T06:22:54;4.10;;;2.25;;
45618;SDS011;31343;47.520;19.144;2023-02-01T06:25:20;3.83;;;2.22;;
45618;SDS011;31343;47.520;19.144;2023-02-01T06:27:47;4.00;;;2.10;;
45618;SDS011;31343;47.520;19.144;2023-02-01T06:30:14;4.28;;;2.00;;
45618;SDS011;31343;47.520;19.144;2023-02-01T06:32:40;5.22;;;2.60;;
45618;SDS011;31343;47.520;19.144;2023-02-01T06:35:09;3.40;;;1.92;;
45618;SDS011;31343;47.520;19.144;2023-02-01T06:37:41;4.97;;;2.40;;
45618;SDS011;31343;47.520;19.144;2023-02-01T06:40:09;6.13;;;2.80;;
45618;SDS011;31343;47.520;19.144;2023-02-01T06:42:35;4.97;;;2.30;;
45618;SDS011;31343;47.520;19.144;2023-02-01T06:45:01;3.53;;;2.20;;
45618;SDS011;31343;47.520;19.144;2023-02-01T06:47:27;4.15;;;1.88;;
45618;SDS011;31343;47.520;19.144;2023-02-01T06:49:55;2.92;;;1.88;;
45618;SDS011;31343;47.520;19.144;2023-02-01T06:52:20;3.72;;;2.10;;
45618;SDS011;31343;47.520;19.144;2023-02-01T06:54:47;3.97;;;2.38;;
45618;SDS011;31343;47.520;19.144;2023-02-01T06:57:13;3.83;;;2.20;;
45618;SDS011;31343;47.520;19.144;2023-02-01T06:59:39;3.20;;;1.83;;
45618;SDS011;31343;47.520;19.144;2023-02-01T07:02:05;2.45;;;1.90;;
45618;SDS011;31343;47.520;19.144;2023-02-01T07:04:31;4.35;;;2.03;;
45618;SDS011;31343;47.520;19.144;2023-02-01T07:06:56;2.53;;;1.63;;
45618;SDS011;31343;47.520;19.144;2023-02-01T07:09:22;4.00;;;1.95;;
45618;SDS011;31343;47.520;19.144;2023-02-01T07:11:48;3.33;;;2.33;;
45618;SDS011;31343;47.520;19.144;2023-02-01T07:14:14;3.10;;;2.00;;
45618;SDS011;31343;47.520;19.144;2023-02-01T07:16:39;3.20;;;2.08;;
45618;SDS011;31343;47.520;19.144;2023-02-01T07:19:05;2.95;;;1.90;;
45618;SDS011;31343;47.520;19.144;2023-02-01T07:21:31;4.82;;;1.90;;
45618;SDS011;31343;47.520;19.144;2023-02-01T07:23:58;3.58;;;1.92;;
45618;SDS011;31343;47.520;19.144;2023-02-01T07:26:24;4.95;;;2.50;;
45618;SDS011;31343;47.520;19.144;2023-02-01T07:28:50;4.00;;;2.15;;
45618;SDS011;31343;47.520;19.144;2023-02-01T07:31:17;4.40;;;2.00;;
45618;SDS011;31343;47.520;19.144;2023-02-01T07:33:47;3.67;;;1.98;;
45618;SDS011;31343;47.520;19.144;2023-02-01T07:36:17;5.00;;;2.03;;
45618;SDS011;31343;47.520;19.144;2023-02-01T07:38:43;3.72;;;1.90;;
45618;SDS011;31343;47.520;19.144;2023-02-01T07:41:11;4.25;;;1.70;;
45618;SDS011;31343;47.520;19.144;2023-02-01T07:43:37;3.92;;;2.40;;
45618;SDS011;31343;47.520;19.144;2023-02-01T07:46:03;2.92;;;1.90;;
45618;SDS011;31343;47.520;19.144;2023-02-01T07:48:30;2.72;;;1.60;;
45618;SDS011;31343;47.520;19.144;2023-02-01T07:51:00;3.00;;;1.73;;
45618;SDS011;31343;47.520;19.144;2023-02-01T07:53:29;3.08;;;1.85;;
45618;SDS011;31343;47.520;19.144;2023-02-01T07:55:56;3.28;;;1.55;;
45618;SDS011;31343;47.520;19.144;2023-02-01T07:58:22;2.92;;;1.73;;
45618;SDS011;31343;47.520;19.144;2023-02-01T08:00:50;3.83;;;1.80;;
45618;SDS011;31343;47.520;19.144;2023-02-01T08:03:34;4.10;;;2.00;;
45618;SDS011;31343;47.520;19.144;2023-02-01T08:06:00;3.40;;;1.88;;
45618;SDS011;31343;47.520;19.144;2023-02-01T08:08:25;3.10;;;1.60;;
45618;SDS011;31343;47.520;19.144;2023-02-01T08:10:56;3.53;;;1.60;;
45618;SDS011;31343;47.520;19.144;2023-02-01T08:13:23;3.30;;;1.65;;
45618;SDS011;31343;47.520;19.144;2023-02-01T08:15:49;3.05;;;1.63;;
45618;SDS011;31343;47.520;19.144;2023-02-01T08:18:15;3.35;;;1.80;;
45618;SDS011;31343;47.520;19.144;2023-02-01T08:20:43;5.07;;;1.95;;
45618;SDS011;31343;47.520;19.144;2023-02-01T08:23:11;3.55;;;1.80;;
45618;SDS011;31343;47.520;19.144;2023-02-01T08:25:37;3.83;;;1.90;;
45618;SDS011;31343;47.520;19.144;2023-02-01T08:28:04;4.05;;;1.73;;
45618;SDS011;31343;47.520;19.144;2023-02-01T08:30:30;4.57;;;2.25;;
45618;SDS011;31343;47.520;19.144;2023-02-01T08:32:57;2.80;;;1.40;;
45618;SDS011;31343;47.520;19.144;2023-02-01T08:35:23;3.20;;;1.77;;
45618;SDS011;31343;47.520;19.144;2023-02-01T08:37:51;4.50;;;1.70;;
45618;SDS011;31343;47.520;19.144;2023-02-01T08:40:17;6.05;;;2.30;;
45618;SDS011;31343;47.520;19.144;2023-02-01T08:42:44;2.55;;;1.50;;
45618;SDS011;31343;47.520;19.144;2023-02-01T08:45:17;2.92;;;1.80;;
45618;SDS011;31343;47.520;19.144;2023-02-01T08:47:47;2.60;;;1.55;;
45618;SDS011;31343;47.520;19.144;2023-02-01T08:50:13;4.47;;;1.73;;
45618;SDS011;31343;47.520;19.144;2023-02-01T08:52:39;2.38;;;1.40;;
45618;SDS011;31343;47.520;19.144;2023-02-01T08:55:05;3.95;;;1.88;;
45618;SDS011;31343;47.520;19.144;2023-02-01T08:57:32;3.22;;;1.52;;
45618;SDS011;31343;47.520;19.144;2023-02-01T08:59:59;4.30;;;1.73;;
45618;SDS011;31343;47.520;19.144;2023-02-01T09:02:25;3.60;;;1.50;;
45618;SDS011;31343;47.520;19.144;2023-02-01T09:04:51;3.50;;;2.00;;
45618;SDS011;31343;47.520;19.144;2023-02-01T09:07:17;3.67;;;1.70;;
45618;SDS011;31343;47.520;19.144;2023-02-01T09:09:43;5.72;;;1.40;;
45618;SDS011;31343;47.520;19.144;2023-02-01T09:12:09;3.42;;;2.05;;
45618;SDS011;31343;47.520;19.144;2023-02-01T09:14:37;3.17;;;1.70;;
45618;SDS011;31343;47.520;19.144;2023-02-01T09:17:03;4.28;;;1.63;;
45618;SDS011;31343;47.520;19.144;2023-02-01T09:19:30;3.88;;;2.28;;
45618;SDS011;31343;47.520;19.144;2023-02-01T09:21:57;4.13;;;1.70;;
45618;SDS011;31343;47.520;19.144;2023-02-01T09:24:22;4.22;;;1.73;;
45618;SDS011;31343;47.520;19.144;2023-02-01T09:26:48;4.35;;;2.17;;
45618;SDS011;31343;47.520;19.144;2023-02-01T09:29:15;6.63;;;1.60;;
45618;SDS011;31343;47.520;19.144;2023-02-01T09:31:42;3.22;;;1.60;;
45618;SDS011;31343;47.520;19.144;2023-02-01T09:34:07;5.50;;;1.67;;
45618;SDS011;31343;47.520;19.144;2023-02-01T09:36:33;3.00;;;1.60;;
45618;SDS011;31343;47.520;19.144;2023-02-01T09:39:01;3.97;;;1.58;;
45618;SDS011;31343;47.520;19.144;2023-02-01T09:41:32;3.45;;;1.50;;
45618;SDS011;31343;47.520;19.144;2023-02-01T09:47:28;4.20;;;1.55;;
45618;SDS011;31343;47.520;19.144;2023-02-01T09:49:56;3.28;;;1.80;;
45618;SDS011;31343;47.520;19.144;2023-02-01T09:52:41;3.35;;;1.98;;
45618;SDS011;31343;47.520;19.144;2023-02-01T09:55:54;2.20;;;1.35;;
45618;SDS011;31343;47.520;19.144;2023-02-01T09:58:07;3.17;;;1.75;;
45618;SDS011;31343;47.520;19.144;2023-02-01T10:00:39;2.90;;;1.63;;
45618;SDS011;31343;47.520;19.144;2023-02-01T10:03:11;4.28;;;1.70;;
45618;SDS011;31343;47.520;19.144;2023-02-01T10:15:22;4.15;;;1.80;;
45618;SDS011;31343;47.520;19.144;2023-02-01T10:17:54;3.47;;;1.92;;
45618;SDS011;31343;47.520;19.144;2023-02-01T10:28:25;2.97;;;1.60;;
45618;SDS011;31343;47.520;19.144;2023-02-01T10:30:52;3.80;;;1.40;;
45618;SDS011;31343;47.520;19.144;2023-02-01T10:33:26;4.93;;;2.22;;
45618;SDS011;31343;47.520;19.144;2023-02-01T10:36:00;3.83;;;2.08;;
45618;SDS011;31343;47.520;19.144;2023-02-01T10:38:41;3.10;;;1.80;;
45618;SDS011;31343;47.520;19.144;2023-02-01T10:41:18;3.35;;;1.70;;
45618;SDS011;31343;47.520;19.144;2023-02-01T10:43:48;3.83;;;1.60;;
45618;SDS011;31343;47.520;19.144;2023-02-01T10:46:31;5.00;;;1.83;;
45618;SDS011;31343;47.520;19.144;2023-02-01T10:49:00;3.20;;;1.55;;
45618;SDS011;31343;47.520;19.144;2023-02-01T10:54:41;3.63;;;1.38;;
45618;SDS011;31343;47.520;19.144;2023-02-01T10:57:21;2.78;;;1.27;;
45618;SDS011;31343;47.520;19.144;2023-02-01T10:59:50;3.15;;;1.42;;
45618;SDS011;31343;47.520;19.144;2023-02-01T11:05:01;3.88;;;1.55;;
45618;SDS011;31343;47.520;19.144;2023-02-01T11:07:37;4.70;;;1.90;;
45618;SDS011;31343;47.520;19.144;2023-02-01T11:10:05;2.42;;;1.42;;
45618;SDS011;31343;47.520;19.144;2023-02-01T11:12:32;3.53;;;1.42;;
45618;SDS011;31343;47.520;19.144;2023-02-01T11:17:47;4.30;;;2.00;;
45618;SDS011;31343;47.520;19.144;2023-02-01T11:22:58;3.97;;;1.80;;
45618;SDS011;31343;47.520;19.144;2023-02-01T11:25:25;3.00;;;1.60;;
45618;SDS011;31343;47.520;19.144;2023-02-01T11:27:53;2.78;;;1.60;;
45618;SDS011;31343;47.520;19.144;2023-02-01T11:30:30;3.47;;;1.92;;
45618;SDS011;31343;47.520;19.144;2023-02-01T11:33:01;3.67;;;2.40;;
45618;SDS011;31343;47.520;19.144;2023-02-01T11:35:31;3.20;;;2.25;;
45618;SDS011;31343;47.520;19.144;2023-02-01T11:38:09;3.60;;;2.13;;
45618;SDS011;31343;47.520;19.144;2023-02-01T11:40:46;3.65;;;2.20;;
45618;SDS011;31343;47.520;19.144;2023-02-01T11:43:23;3.80;;;2.25;;
45618;SDS011;31343;47.520;19.144;2023-02-01T11:46:03;3.55;;;2.13;;
45618;SDS011;31343;47.520;19.144;2023-02-01T11:48:43;4.15;;;2.30;;
45618;SDS011;31343;47.520;19.144;2023-02-01T11:57:04;4.72;;;2.60;;
45618;SDS011;31343;47.520;19.144;2023-02-01T12:00:30;4.00;;;2.63;;
45618;SDS011;31343;47.520;19.144;2023-02-01T12:08:48;5.25;;;3.30;;
45618;SDS011;31343;47.520;19.144;2023-02-01T12:28:25;5.25;;;3.00;;
45618;SDS011;31343;47.520;19.144;2023-02-01T12:37:18;5.47;;;3.08;;
45618;SDS011;31343;47.520;19.144;2023-02-01T12:42:48;5.15;;;2.53;;
45618;SDS011;31343;47.520;19.144;2023-02-01T12:45:31;4.00;;;2.08;;
45618;SDS011;31343;47.520;19.144;2023-02-01T12:51:00;5.00;;;2.38;;
45618;SDS011;31343;47.520;19.144;2023-02-01T12:53:43;4.15;;;2.95;;
45618;SDS011;31343;47.520;19.144;2023-02-01T12:56:22;4.72;;;2.80;;
45618;SDS011;31343;47.520;19.144;2023-02-01T12:59:05;6.03;;;2.85;;
45618;SDS011;31343;47.520;19.144;2023-02-01T13:01:56;5.30;;;2.38;;
45618;SDS011;31343;47.520;19.144;2023-02-01T13:04:49;5.43;;;2.33;;
45618;SDS011;31343;47.520;19.144;2023-02-01T13:07:39;4.30;;;2.45;;
45618;SDS011;31343;47.520;19.144;2023-02-01T13:16:23;3.30;;;1.77;;
45618;SDS011;31343;47.520;19.144;2023-02-01T13:18:37;4.05;;;2.00;;
45618;SDS011;31343;47.520;19.144;2023-02-01T13:21:24;2.63;;;1.90;;
45618;SDS011;31343;47.520;19.144;2023-02-01T13:23:54;3.28;;;1.73;;
45618;SDS011;31343;47.520;19.144;2023-02-01T13:26:20;3.83;;;1.75;;
45618;SDS011;31343;47.520;19.144;2023-02-01T13:28:49;2.53;;;1.50;;
45618;SDS011;31343;47.520;19.144;2023-02-01T13:42:45;3.75;;;2.08;;
45618;SDS011;31343;47.520;19.144;2023-02-01T13:45:16;4.60;;;2.40;;
45618;SDS011;31343;47.520;19.144;2023-02-01T13:47:47;4.88;;;1.90;;
45618;SDS011;31343;47.520;19.144;2023-02-01T13:50:29;4.65;;;2.60;;
45618;SDS011;31343;47.520;19.144;2023-02-01T13:53:23;3.90;;;2.25;;
45618;SDS011;31343;47.520;19.144;2023-02-01T13:58:52;4.15;;;2.20;;
45618;SDS011;31343;47.520;19.144;2023-02-01T14:32:40;3.80;;;1.42;;
45618;SDS011;31343;47.520;19.144;2023-02-01T17:30:50;3.45;;;1.90;;
45618;SDS011;31343;47.520;19.144;2023-02-01T17:35:50;3.58;;;1.70;;
45618;SDS011;31343;47.520;19.144;2023-02-01T17:38:17;4.32;;;1.88;;
45618;SDS011;31343;47.520;19.144;2023-02-01T17:40:43;4.53;;;2.53;;
45618;SDS011;31343;47.520;19.144;2023-02-01T17:43:11;6.57;;;2.97;;
45618;SDS011;31343;47.520;19.144;2023-02-01T17:45:46;7.50;;;3.30;;
45618;SDS011;31343;47.520;19.144;2023-02-01T17:48:17;7.70;;;3.67;;
45618;SDS011;31343;47.520;19.144;2023-02-01T17:50:49;10.82;;;4.07;;
45618;SDS011;31343;47.520;19.144;2023-02-01T17:53:23;11.95;;;4.80;;
45618;SDS011;31343;47.520;19.144;2023-02-01T17:55:53;5.10;;;1.88;;
45618;SDS011;31343;47.520;19.144;2023-02-01T17:58:22;7.97;;;3.70;;
45618;SDS011;31343;47.520;19.144;2023-02-01T18:00:48;5.38;;;3.15;;
45618;SDS011;31343;47.520;19.144;2023-02-01T18:03:20;4.57;;;2.50;;
45618;SDS011;31343;47.520;19.144;2023-02-01T18:05:49;3.95;;;2.35;;
45618;SDS011;31343;47.520;19.144;2023-02-01T18:08:18;5.68;;;2.13;;
45618;SDS011;31343;47.520;19.144;2023-02-01T18:10:51;3.97;;;2.58;;
45618;SDS011;31343;47.520;19.144;2023-02-01T18:13:18;5.80;;;3.40;;
45618;SDS011;31343;47.520;19.144;2023-02-01T18:15:45;6.28;;;3.63;;
45618;SDS011;31343;47.520;19.144;2023-02-01T18:18:11;4.80;;;2.70;;
45618;SDS011;31343;47.520;19.144;2023-02-01T18:20:38;4.72;;;2.53;;
45618;SDS011;31343;47.520;19.144;2023-02-01T18:23:11;4.55;;;2.67;;
45618;SDS011;31343;47.520;19.144;2023-02-01T18:25:41;5.72;;;2.42;;
45618;SDS011;31343;47.520;19.144;2023-02-01T18:28:08;4.70;;;2.70;;
45618;SDS011;31343;47.520;19.144;2023-02-01T18:30:34;4.72;;;2.38;;
45618;SDS011;31343;47.520;19.144;2023-02-01T18:33:00;3.63;;;2.25;;
45618;SDS011;31343;47.520;19.144;2023-02-01T18:35:27;4.78;;;1.92;;
45618;SDS011;31343;47.520;19.144;2023-02-01T18:37:55;3.42;;;2.05;;
45618;SDS011;31343;47.520;19.144;2023-02-01T18:40:22;13.95;;;4.40;;
45618;SDS011;31343;47.520;19.144;2023-02-01T18:42:57;6.90;;;3.33;;
45618;SDS011;31343;47.520;19.144;2023-02-01T18:45:30;4.85;;;1.95;;
45618;SDS011;31343;47.520;19.144;2023-02-01T18:47:56;3.17;;;1.45;;
45618;SDS011;31343;47.520;19.144;2023-02-01T18:50:24;2.50;;;1.20;;
45618;SDS011;31343;47.520;19.144;2023-02-01T18:52:54;3.10;;;1.73;;
45618;SDS011;31343;47.520;19.144;2023-02-01T18:55:22;2.65;;;1.17;;
45618;SDS011;31343;47.520;19.144;2023-02-01T18:57:48;2.53;;;1.33;;
45618;SDS011;31343;47.520;19.144;2023-02-01T19:00:16;2.50;;;1.48;;
45618;SDS011;31343;47.520;19.144;2023-02-01T19:02:43;2.55;;;1.38;;
45618;SDS011;31343;47.520;19.144;2023-02-01T19:05:09;4.55;;;1.17;;
45618;SDS011;31343;47.520;19.144;2023-02-01T19:07:36;2.70;;;1.38;;
45618;SDS011;31343;47.520;19.144;2023-02-01T19:10:03;3.10;;;1.42;;
45618;SDS011;31343;47.520;19.144;2023-02-01T19:12:32;2.72;;;1.40;;
45618;SDS011;31343;47.520;19.144;2023-02-01T19:14:59;2.53;;;1.35;;
45618;SDS011;31343;47.520;19.144;2023-02-01T19:17:26;2.38;;;1.30;;
45618;SDS011;31343;47.520;19.144;2023-02-01T19:19:52;3.03;;;1.55;;
45618;SDS011;31343;47.520;19.144;2023-02-01T19:22:18;3.85;;;1.75;;
45618;SDS011;31343;47.520;19.144;2023-02-01T19:24:44;5.10;;;1.20;;
45618;SDS011;31343;47.520;19.144;2023-02-01T19:27:10;2.85;;;1.50;;
45618;SDS011;31343;47.520;19.144;2023-02-01T19:29:36;3.47;;;1.33;;
45618;SDS011;31343;47.520;19.144;2023-02-01T19:32:03;2.05;;;1.23;;
45618;SDS011;31343;47.520;19.144;2023-02-01T19:34:29;2.95;;;1.45;;
45618;SDS011;31343;47.520;19.144;2023-02-01T19:36:56;3.10;;;1.48;;
45618;SDS011;31343;47.520;19.144;2023-02-01T19:39:21;3.67;;;1.83;;
45618;SDS011;31343;47.520;19.144;2023-02-01T19:41:49;2.08;;;0.98;;
45618;SDS011;31343;47.520;19.144;2023-02-01T19:44:15;1.58;;;1.20;;
45618;SDS011;31343;47.520;19.144;2023-02-01T19:46:41;2.13;;;1.30;;
45618;SDS011;31343;47.520;19.144;2023-02-01T19:49:07;3.30;;;1.67;;
45618;SDS011;31343;47.520;19.144;2023-02-01T19:51:39;4.68;;;1.75;;
45618;SDS011;31343;47.520;19.144;2023-02-01T19:54:06;2.72;;;1.30;;
45618;SDS011;31343;47.520;19.144;2023-02-01T19:56:33;2.53;;;1.30;;
45618;SDS011;31343;47.520;19.144;2023-02-01T19:59:00;2.83;;;1.30;;
45618;SDS011;31343;47.520;19.144;2023-02-01T20:01:27;2.65;;;1.40;;
45618;SDS011;31343;47.520;19.144;2023-02-01T20:03:52;3.58;;;1.25;;
45618;SDS011;31343;47.520;19.144;2023-02-01T20:06:18;2.05;;;1.23;;
45618;SDS011;31343;47.520;19.144;2023-02-01T20:08:44;2.53;;;1.50;;
45618;SDS011;31343;47.520;19.144;2023-02-01T20:11:12;2.25;;;1.25;;
45618;SDS011;31343;47.520;19.144;2023-02-01T20:13:38;4.93;;;1.60;;
45618;SDS011;31343;47.520;19.144;2023-02-01T20:16:04;4.78;;;1.33;;
45618;SDS011;31343;47.520;19.144;2023-02-01T20:18:30;4.10;;;1.80;;
45618;SDS011;31343;47.520;19.144;2023-02-01T20:20:56;4.28;;;1.70;;
45618;SDS011;31343;47.520;19.144;2023-02-01T20:23:23;3.25;;;1.55;;
45618;SDS011;31343;47.520;19.144;2023-02-01T20:25:49;2.35;;;1.23;;